createdAt,value
2018-04-13T00:01:51.249Z,12.58
2018-04-13T00:07:51.982Z,10.27
2018-04-13T00:13:52.893Z,10.95
2018-04-13T00:17:53.670Z,11.47
2018-04-13T00:23:54.416Z,8.42
2018-04-13T00:27:55.206Z,9.26
2018-04-13T00:33:55.918Z,13.41
2018-04-13T00:39:56.680Z,12.58
2018-04-13T00:43:57.408Z,10.26
2018-04-13T00:49:58.178Z,14.4
2018-04-13T00:53:58.994Z,12.6
2018-04-13T00:55:59.820Z,10.96
2018-04-13T01:00:00.718Z,12.22
2018-04-13T01:06:01.688Z,9.01
2018-04-13T01:10:02.643Z,9.02
2018-04-13T01:16:03.514Z,3.62
2018-04-13T01:22:04.263Z,7.06
2018-04-13T01:26:05.069Z,5.79
2018-04-13T01:32:05.909Z,4.85
2018-04-13T01:36:06.868Z,4.99
2018-04-13T01:38:07.621Z,3.54
2018-04-13T01:42:08.293Z,3.51
2018-04-13T01:48:09.129Z,3.59
2018-04-13T01:52:09.868Z,3.49
2018-04-13T01:52:09.880Z,3.49
2018-04-13T01:58:10.732Z,3.81
2018-04-13T02:02:11.492Z,3.67
2018-04-13T02:04:12.141Z,4.08
2018-04-13T02:08:13.024Z,4.81
2018-04-13T02:14:13.929Z,4.44
2018-04-13T02:18:14.746Z,4.64
2018-04-13T02:24:15.832Z,3.61
2018-04-13T02:30:16.787Z,3.63
2018-04-13T02:34:17.666Z,3.37
2018-04-13T02:40:18.285Z,4.45
2018-04-13T02:44:19.042Z,4.3
2018-04-13T02:46:19.729Z,3.65
2018-04-13T02:50:20.451Z,4.76
2018-04-13T02:56:21.182Z,4.52
2018-04-13T03:00:22.313Z,5.45
2018-04-13T03:06:23.104Z,4.84
2018-04-13T03:10:23.909Z,4.82
2018-04-13T03:12:24.573Z,5.31
2018-04-13T03:16:25.502Z,6.66
2018-04-13T03:22:26.260Z,6.95
2018-04-13T03:26:27.242Z,5.68
2018-04-13T03:32:27.911Z,3.52
2018-04-13T03:38:28.648Z,3.69
2018-04-13T03:42:29.432Z,3.99
2018-04-13T03:48:30.289Z,4.35
2018-04-13T03:52:30.982Z,4.57
2018-04-13T03:54:31.825Z,3.78
2018-04-13T03:58:32.709Z,3.61
2018-04-13T04:04:33.495Z,4.54
2018-04-13T04:08:34.206Z,4.2
2018-04-13T04:14:34.916Z,4.37
2018-04-13T04:18:35.658Z,4.46
2018-04-13T04:20:36.393Z,4.83
2018-04-13T04:24:37.173Z,5.67
2018-04-13T04:30:38.006Z,4.22
2018-04-13T04:34:38.799Z,4.7
2018-04-13T04:40:39.449Z,3.28
2018-04-13T04:46:40.299Z,4.39
2018-04-13T04:50:41.051Z,4.94
2018-04-13T04:56:42.045Z,6.25
2018-04-13T05:00:42.814Z,7.6
2018-04-13T05:02:43.520Z,3.9
2018-04-13T05:06:44.303Z,5.94
2018-04-13T05:12:45.080Z,8.9
2018-04-13T05:16:45.831Z,6.49
2018-04-13T05:22:46.578Z,6.72
2018-04-13T05:28:47.396Z,4.78
2018-04-13T05:32:48.197Z,4.25
2018-04-13T05:38:48.928Z,5.36
2018-04-13T05:42:49.777Z,4.37
2018-04-13T05:48:50.653Z,5.3
2018-04-13T05:54:51.534Z,4.9
2018-04-13T05:58:52.350Z,4.31
2018-04-13T06:04:53.093Z,6.23
2018-04-13T06:08:53.828Z,6.51
2018-04-13T06:15:04.977Z,5.76
2018-04-13T06:15:05.139Z,6.03
2018-04-13T06:21:05.914Z,10.28
2018-04-13T06:25:06.704Z,8.78
2018-04-13T06:31:07.487Z,10.49
2018-04-13T06:35:08.240Z,12.67
2018-04-13T06:37:09.072Z,11.65
2018-04-13T06:41:09.891Z,13.9
2018-04-13T06:47:10.873Z,10.85
2018-04-13T06:51:11.590Z,10.38
2018-04-13T06:57:12.371Z,10.79
2018-04-13T07:03:13.125Z,12.79
2018-04-13T07:07:13.882Z,9.89
2018-04-13T07:13:14.689Z,12.79
2018-04-13T07:17:15.587Z,13.62
2018-04-13T07:19:16.404Z,19.07
2018-04-13T07:23:17.111Z,13.98
2018-04-13T07:29:17.965Z,16.4
2018-04-13T07:33:18.789Z,17.07
2018-04-13T07:39:19.814Z,16.28
2018-04-13T07:43:20.576Z,13.81
2018-04-13T07:45:21.672Z,18.08
2018-04-13T07:49:22.596Z,11.88
2018-04-13T07:55:23.192Z,13.75
2018-04-13T07:59:24.010Z,16.65
2018-04-13T08:05:24.894Z,18.45
2018-04-13T08:11:25.770Z,13.31
2018-04-13T08:15:27.076Z,15.33
2018-04-13T08:21:27.836Z,11.88
2018-04-13T08:25:28.702Z,15.7
2018-04-13T08:27:29.480Z,13.48
2018-04-13T08:31:30.572Z,12.13
2018-04-13T08:37:31.539Z,13.37
2018-04-13T08:41:32.518Z,13.31
2018-04-13T08:47:33.328Z,11.62
2018-04-13T08:51:34.262Z,8.26
2018-04-13T08:53:34.999Z,10.73
2018-04-13T08:57:35.794Z,11.4
2018-04-13T09:03:36.727Z,8.71
2018-04-13T09:07:37.526Z,10.47
2018-04-13T09:13:38.347Z,10.15
2018-04-13T09:19:39.377Z,7.63
2018-04-13T09:23:40.284Z,6.93
2018-04-13T09:29:41.089Z,5.34
2018-04-13T09:33:41.869Z,5.37
2018-04-13T09:35:42.801Z,5.39
2018-04-13T09:39:43.763Z,4.68
2018-04-13T09:45:44.611Z,10.67
2018-04-13T09:49:45.538Z,7.26
2018-04-13T09:55:46.269Z,5.4
2018-04-13T09:59:47.075Z,7.88
2018-04-13T10:01:47.780Z,8.14
2018-04-13T10:05:48.532Z,6.16
2018-04-13T10:11:49.511Z,9.28
2018-04-13T10:15:50.271Z,5.54
2018-04-13T10:21:51.143Z,8.41
2018-04-13T10:27:52.027Z,6.22
2018-04-13T10:31:52.840Z,6.74
2018-04-13T10:37:53.576Z,5.48
2018-04-13T10:41:54.337Z,5.94
2018-04-13T10:43:55.134Z,5.97
2018-04-13T10:47:55.948Z,8.95
2018-04-13T10:53:56.544Z,11.92
2018-04-13T10:57:57.500Z,5.35
2018-04-13T11:03:58.371Z,7.66
2018-04-13T11:07:59.245Z,9.19
2018-04-13T11:09:59.980Z,7.65
2018-04-13T11:14:00.776Z,6.69
2018-04-13T11:20:01.465Z,6.54
2018-04-13T11:24:02.330Z,8.96
2018-04-13T11:30:02.993Z,4.17
2018-04-13T11:36:03.889Z,5.11
2018-04-13T11:40:04.662Z,5.45
2018-04-13T11:46:05.479Z,4.61
2018-04-13T11:50:06.275Z,3.11
2018-04-13T11:52:11.694Z,7.14
2018-04-13T11:56:12.712Z,5.06
2018-04-13T12:02:13.557Z,5.13
2018-04-13T12:06:14.472Z,3.61
2018-04-13T12:12:15.333Z,6.5
2018-04-13T12:16:16.497Z,4.91
2018-04-13T12:18:17.224Z,4.48
2018-04-13T12:22:18.301Z,7.97
2018-04-13T12:28:19.163Z,5.98
2018-04-13T12:32:19.988Z,5.47
2018-04-13T12:38:21.666Z,5.06
2018-04-13T12:44:22.614Z,4.38
2018-04-13T12:48:23.337Z,4.28
2018-04-13T12:54:24.109Z,7.16
2018-04-13T12:58:24.870Z,5.51
2018-04-13T13:00:25.828Z,3.94
2018-04-13T13:04:26.674Z,3.74
2018-04-13T13:10:27.423Z,4.17
2018-04-13T13:14:28.186Z,6.54
2018-04-13T13:20:28.898Z,8.05
2018-04-13T13:24:30.132Z,6.9
2018-04-13T13:26:30.905Z,5.45
2018-04-13T13:30:31.928Z,10.47
2018-04-13T13:36:32.793Z,6.87
2018-04-13T13:40:33.557Z,7.62
2018-04-13T13:46:34.413Z,7.24
2018-04-13T13:52:35.161Z,8.73
2018-04-13T13:56:35.922Z,7.96
2018-04-13T14:02:36.746Z,6.59
2018-04-13T14:06:37.688Z,7.9
2018-04-13T14:08:38.534Z,7.54
2018-04-13T14:12:39.358Z,5.88
2018-04-13T14:18:40.137Z,5.67
2018-04-13T14:22:40.998Z,4.15
2018-04-13T14:28:41.840Z,6.29
2018-04-13T14:34:42.802Z,9.7
2018-04-13T14:38:43.843Z,6.03
2018-04-13T14:44:44.570Z,8.16
2018-04-13T14:48:45.519Z,8.62
2018-04-13T14:54:46.264Z,5.37
2018-04-13T15:00:47.052Z,5.98
2018-04-13T15:04:48.091Z,5.84
2018-04-13T15:10:49.499Z,4.33
2018-04-13T15:14:50.519Z,4.35
2018-04-13T15:16:51.594Z,7.97
2018-04-13T15:20:52.453Z,7.38
2018-04-13T15:26:53.571Z,6.24
2018-04-13T15:30:54.384Z,4.2
2018-04-13T15:36:55.377Z,7.29
2018-04-13T15:42:56.194Z,6.66
2018-04-13T15:46:56.961Z,5.67
2018-04-13T15:52:57.725Z,6.5
2018-04-13T15:56:58.484Z,5.95
2018-04-13T16:02:59.326Z,5.08
2018-04-13T16:09:00.314Z,4.88
2018-04-13T16:13:01.045Z,7.17
2018-04-13T16:19:01.973Z,5.11
2018-04-13T16:23:02.905Z,5.8
2018-04-13T16:25:03.554Z,5.17
2018-04-13T16:29:04.666Z,5.54
2018-04-13T16:35:05.416Z,8.71
2018-04-13T16:39:06.221Z,11.05
2018-04-13T16:45:07.183Z,5.75
2018-04-13T16:51:08.213Z,6.2
2018-04-13T16:55:09.061Z,5.75
2018-04-13T17:01:09.891Z,4.73
2018-04-13T17:05:10.719Z,4.21
2018-04-13T17:11:11.530Z,5.39
2018-04-13T17:17:12.356Z,6.67
2018-04-13T17:21:13.088Z,7.13
2018-04-13T17:27:13.936Z,4.99
2018-04-13T17:31:14.812Z,5.14
2018-04-13T17:33:15.539Z,7.3
2018-04-13T17:37:16.370Z,8.52
2018-04-13T17:43:17.246Z,8.16
2018-04-13T17:47:18.009Z,11.07
2018-04-13T17:53:18.741Z,9.78
2018-04-13T17:59:19.633Z,8.73
2018-04-13T18:03:20.482Z,12.88
2018-04-13T18:09:21.276Z,14.06
2018-04-13T18:13:22.049Z,14.83
2018-04-13T18:15:22.927Z,12.54
2018-04-13T18:19:23.791Z,10.43
2018-04-13T18:25:24.620Z,11.8
2018-04-13T18:29:25.447Z,14.82
2018-04-13T18:35:26.527Z,11.76
2018-04-13T18:39:27.623Z,12.15
2018-04-13T18:41:28.680Z,11.46
2018-04-13T18:45:29.918Z,13.33
2018-04-13T18:51:30.940Z,15.38
2018-04-13T18:55:31.860Z,13.58
2018-04-13T19:01:32.568Z,13.08
2018-04-13T19:07:33.330Z,16.69
2018-04-13T19:11:34.158Z,15.39
2018-04-13T19:17:35.031Z,17.63
2018-04-13T19:21:35.796Z,17.84
2018-04-13T19:23:36.558Z,17.41
2018-04-13T19:27:37.231Z,17.6
2018-04-13T19:33:38.105Z,18.51
2018-04-13T19:37:39.069Z,16.5
2018-04-13T19:43:39.862Z,14.91
2018-04-13T19:47:40.698Z,17.3
2018-04-13T19:49:41.578Z,16.76
2018-04-13T19:53:42.350Z,14.19
2018-04-13T19:59:43.273Z,15.26
2018-04-13T20:03:44.327Z,13.88
2018-04-13T20:09:45.148Z,17.01
2018-04-13T20:15:46.114Z,14.73
2018-04-13T20:19:46.969Z,13.38
2018-04-13T20:25:48.003Z,15.2
2018-04-13T20:29:48.859Z,12.63
2018-04-13T20:31:49.709Z,14.86
2018-04-13T20:35:50.663Z,12.86
2018-04-13T20:41:51.444Z,13.41
2018-04-13T20:45:52.341Z,11.48
2018-04-13T20:51:53.159Z,13.46
2018-04-13T20:55:53.977Z,15.45
2018-04-13T20:57:54.846Z,14.23
2018-04-13T21:01:55.790Z,15.79
2018-04-13T21:07:56.530Z,14.45
2018-04-13T21:11:57.522Z,14.67
2018-04-13T21:17:58.216Z,12.9
2018-04-13T21:23:59.100Z,14.16
2018-04-13T21:28:00.065Z,12.73
2018-04-13T21:34:05.762Z,24.6
2018-04-13T21:38:06.819Z,20.91
2018-04-13T21:44:07.585Z,17.57
2018-04-13T21:50:08.374Z,17.82
2018-04-13T21:54:09.207Z,16.43
2018-04-13T22:00:09.981Z,10.95
2018-04-13T22:04:10.773Z,9.93
2018-04-13T22:06:11.504Z,13.6
2018-04-13T22:10:12.282Z,9.82
2018-04-13T22:16:13.069Z,10.4
2018-04-13T22:20:13.834Z,9.1
2018-04-13T22:26:14.607Z,10
2018-04-13T22:32:15.370Z,10.88
2018-04-13T22:36:16.123Z,11.6
2018-04-13T22:42:16.812Z,9.68
2018-04-13T22:46:17.626Z,10.47
2018-04-13T22:48:18.268Z,11.19
2018-04-13T22:52:19.001Z,15.52
2018-04-13T22:58:19.748Z,11.99
2018-04-13T23:02:20.454Z,13.32
2018-04-13T23:08:21.184Z,10.93
2018-04-13T23:12:21.924Z,8.95
2018-04-13T23:14:22.604Z,9.2
2018-04-13T23:18:23.392Z,9.43
2018-04-13T23:24:24.133Z,9.53
2018-04-13T23:28:24.892Z,8.55
2018-04-13T23:34:25.671Z,7.12
2018-04-13T23:40:26.420Z,9.11
2018-04-13T23:44:27.338Z,9.43
2018-04-13T23:50:28.163Z,10.25
2018-04-13T23:54:29.435Z,9.14
2018-04-13T23:56:30.065Z,13.46
